Time;durP1;ratioP1;P1;durP2;ratioP2;P2;SDS_P1;SDS_P2;PMS_P1;PMS_P2;Temp;Humidity;BMP_temperature;BMP_pressure;BME280_temperature;BME280_humidity;BME280_pressure;Samples;Min_cycle;Max_cycle;Signal;HPM_P1;HPM_P2
2022/12/19 00:01:15;;;;;;;;;;;;;;;-1.00;70.51;99273.69;7386547;19;19919;-76
2022/12/19 00:03:42;;;;;;;;;;;;;;;-1.04;70.05;99266.91;7389658;19;19918;-76
2022/12/19 00:06:09;;;;;;;;;;;;;;;-0.97;69.30;99280.50;7386252;19;19915;-77
2022/12/19 00:08:35;;;;;;;;;;;;;;;-0.81;69.20;99301.53;7385708;19;19951;-77
2022/12/19 00:11:02;;;;;;;;;;;;;;;-0.72;68.99;99301.97;7383044;19;19958;-77
2022/12/19 00:13:29;;;;;;;;;;;;;;;-0.80;69.58;99298.00;7383145;19;19918;-77
2022/12/19 00:16:02;;;;;;;;;;;;;;;-0.84;69.41;99305.09;7382266;19;20351;-77
2022/12/19 00:18:29;;;;;;;;;;;;;;;-0.79;69.39;99299.69;7385158;19;20239;-77
2022/12/19 00:20:59;;;;;;;;;;;;;;;-0.70;69.44;99296.72;7383897;19;20265;-77
2022/12/19 00:23:26;;;;;;;;;;;;;;;-0.68;69.71;99298.38;7383655;19;19950;-77
2022/12/19 00:25:53;;;;;;;;;;;;;;;-0.72;69.35;99289.00;7375537;19;21049;-77
2022/12/19 00:28:20;;;;;;;;;;;;;;;-0.72;69.86;99294.19;7383279;19;22786;-77
2022/12/19 00:30:47;;;;;;;;;;;;;;;-0.70;70.26;99284.59;7372249;19;19939;-76
2022/12/19 00:33:13;;;;;;;;;;;;;;;-0.79;70.46;99286.69;7376014;19;19919;-77
2022/12/19 00:35:40;;;;;;;;;;;;;;;-0.73;69.71;99291.66;7378913;19;20343;-76
2022/12/19 00:38:09;;;;;;;;;;;;;;;-0.74;69.46;99289.97;7385929;19;19914;-77
2022/12/19 00:40:35;;;;;;;;;;;;;;;-0.83;69.78;99285.16;7382892;19;19919;-76
2022/12/19 00:43:02;;;;;;;;;;;;;;;-0.57;69.30;99276.28;7384822;19;19918;-77
2022/12/19 00:45:28;;;;;;;;;;;;;;;-0.59;69.39;99272.91;7380862;19;19935;-77
2022/12/19 00:47:55;;;;;;;;;;;;;;;-0.62;69.73;99267.84;7383739;19;19919;-77
2022/12/19 00:50:22;;;;;;;;;;;;;;;-0.59;70.13;99257.31;7383362;19;19945;-77
2022/12/19 00:52:49;;;;;;;;;;;;;;;-0.66;70.04;99251.50;7380898;19;19922;-77
2022/12/19 00:55:15;;;;;;;;;;;;;;;-0.53;69.46;99247.47;7382815;19;19994;-77
2022/12/19 00:57:45;;;;;;;;;;;;;;;-0.48;69.47;99245.53;7383404;19;20549;-77
2022/12/19 01:00:12;;;;;;;;;;;;;;;-0.53;68.99;99236.25;7386189;19;19929;-76
2022/12/19 01:02:38;;;;;;;;;;;;;;;-0.60;69.20;99238.28;7379259;19;19943;-76
2022/12/19 01:05:05;;;;;;;;;;;;;;;-0.52;68.84;99241.41;7380994;19;19926;-76
2022/12/19 01:07:32;;;;;;;;;;;;;;;-0.41;68.35;99258.28;7382180;19;20268;-76
2022/12/19 01:09:59;;;;;;;;;;;;;;;-0.53;69.17;99239.69;7385540;19;19918;-76
2022/12/19 01:12:45;;;;;;;;;;;;;;;-0.49;69.68;99232.63;7380258;19;19923;-76
2022/12/19 01:15:13;;;;;;;;;;;;;;;-0.52;69.65;99228.41;7380878;19;19929;-76
2022/12/19 01:17:39;;;;;;;;;;;;;;;-0.42;68.76;99228.84;7380891;19;19923;-76
2022/12/19 01:20:11;;;;;;;;;;;;;;;-0.35;69.20;99227.66;7376802;19;19930;-77
2022/12/19 01:22:37;;;;;;;;;;;;;;;-0.40;69.65;99218.38;7381648;19;19927;-77
2022/12/19 01:25:04;;;;;;;;;;;;;;;-0.32;70.06;99213.69;7380369;19;19915;-76
2022/12/19 01:27:31;;;;;;;;;;;;;;;-0.24;69.13;99220.25;7382091;19;19943;-76
2022/12/19 01:29:57;;;;;;;;;;;;;;;-0.25;69.44;99220.31;7378722;19;19976;-76
2022/12/19 01:32:24;;;;;;;;;;;;;;;-0.22;68.79;99220.19;7391171;19;19943;-76
2022/12/19 01:34:50;;;;;;;;;;;;;;;-0.11;68.44;99220.53;7384078;19;19918;-77
2022/12/19 01:37:17;;;;;;;;;;;;;;;-0.11;68.66;99217.94;7382787;19;19922;-77
2022/12/19 01:39:44;;;;;;;;;;;;;;;-0.09;68.69;99216.13;7387966;19;19927;-77
2022/12/19 01:42:15;;;;;;;;;;;;;;;-0.11;68.18;99220.53;7391285;19;20310;-78
2022/12/19 01:45:06;;;;;;;;;;;;;;;-0.06;68.07;99220.34;7384895;19;19923;-78
2022/12/19 01:47:42;;;;;;;;;;;;;;;-0.05;68.22;99222.88;7390514;19;20552;-77
2022/12/19 01:50:11;;;;;;;;;;;;;;;-0.19;69.09;99219.19;7390001;19;19945;-77
2022/12/19 01:52:37;;;;;;;;;;;;;;;-0.12;69.13;99208.47;7383732;19;20368;-77
2022/12/19 01:55:04;;;;;;;;;;;;;;;-0.24;68.90;99196.00;7387549;19;20300;-77
2022/12/19 01:57:30;;;;;;;;;;;;;;;-0.09;69.80;99191.88;7392507;19;19927;-77
2022/12/19 01:59:59;;;;;;;;;;;;;;;-0.19;69.42;99182.78;7391744;19;19923;-78
2022/12/19 02:02:33;;;;;;;;;;;;;;;-0.18;69.76;99182.75;7390541;19;19979;-77
2022/12/19 02:05:02;;;;;;;;;;;;;;;-0.17;69.66;99166.22;7390013;19;19935;-77
2022/12/19 02:07:29;;;;;;;;;;;;;;;-0.01;69.16;99175.00;7392676;19;19911;-77
2022/12/19 02:09:56;;;;;;;;;;;;;;;0.02;68.79;99173.19;7383719;19;19929;-77
2022/12/19 02:12:33;;;;;;;;;;;;;;;0.07;68.41;99166.00;7384643;19;19974;-77
2022/12/19 02:14:59;;;;;;;;;;;;;;;0.00;68.77;99165.47;7387822;19;19930;-76
2022/12/19 02:17:33;;;;;;;;;;;;;;;0.14;68.86;99173.47;7390261;19;19922;-77
2022/12/19 02:20:09;;;;;;;;;;;;;;;0.23;68.38;99174.78;7389430;19;19923;-77
2022/12/19 02:22:39;;;;;;;;;;;;;;;0.25;68.52;99177.34;7387057;19;19982;-77
2022/12/19 02:25:24;;;;;;;;;;;;;;;0.21;68.25;99163.59;7387684;19;20316;-77
2022/12/19 02:28:00;;;;;;;;;;;;;;;0.29;68.33;99168.44;7382120;19;20012;-77
2022/12/19 02:30:34;;;;;;;;;;;;;;;0.25;68.48;99167.75;7386406;19;19929;-77
2022/12/19 02:33:21;;;;;;;;;;;;;;;0.25;68.44;99172.13;7384245;19;20589;-77
2022/12/19 02:36:07;;;;;;;;;;;;;;;0.29;68.57;99178.84;7386184;19;19987;-77
2022/12/19 02:38:40;;;;;;;;;;;;;;;0.22;68.53;99175.72;7386415;19;19937;-78
2022/12/19 02:41:08;;;;;;;;;;;;;;;0.32;68.43;99173.53;7384985;19;19933;-77
2022/12/19 02:43:38;;;;;;;;;;;;;;;0.21;69.01;99176.59;7381728;19;19922;-77
2022/12/19 02:46:05;;;;;;;;;;;;;;;0.17;69.13;99169.88;7380421;19;20575;-77
2022/12/19 02:48:33;;;;;;;;;;;;;;;0.03;69.30;99161.84;7387063;19;19910;-77
2022/12/19 02:51:02;;;;;;;;;;;;;;;0.17;69.22;99159.47;7384815;19;19918;-77
2022/12/19 02:53:30;;;;;;;;;;;;;;;0.19;69.24;99165.44;7383790;19;19947;-78
2022/12/19 02:56:03;;;;;;;;;;;;;;;0.14;69.44;99155.25;7385730;19;20328;-77
2022/12/19 02:58:40;;;;;;;;;;;;;;;0.04;70.24;99168.75;7387451;19;19947;-79
2022/12/19 03:01:13;;;;;;;;;;;;;;;0.19;69.64;99168.06;7382146;19;20290;-77
2022/12/19 03:03:45;;;;;;;;;;;;;;;0.25;69.40;99166.91;7382851;19;19919;-75
2022/12/19 03:06:19;;;;;;;;;;;;;;;0.10;69.97;99164.09;7384643;19;19937;-75
2022/12/19 03:08:46;;;;;;;;;;;;;;;0.13;70.02;99174.38;7387670;19;19927;-75
2022/12/19 03:11:13;;;;;;;;;;;;;;;0.15;70.39;99161.28;7382438;19;19922;-75
2022/12/19 03:13:55;;;;;;;;;;;;;;;0.07;70.92;99155.59;7371712;19;19919;-78
2022/12/19 03:16:22;;;;;;;;;;;;;;;0.24;70.56;99162.63;7377445;19;20275;-77
2022/12/19 03:18:49;;;;;;;;;;;;;;;0.19;70.56;99170.66;7381011;19;20344;-78
2022/12/19 03:21:28;;;;;;;;;;;;;;;0.30;70.52;99163.19;7380869;19;20240;-78
2022/12/19 03:23:55;;;;;;;;;;;;;;;0.19;70.62;99170.66;7381983;19;19930;-78
2022/12/19 03:26:23;;;;;;;;;;;;;;;0.26;70.21;99177.25;7383730;19;19923;-78
2022/12/19 03:28:57;;;;;;;;;;;;;;;0.26;70.30;99172.03;7384278;19;19923;-78
2022/12/19 03:31:25;;;;;;;;;;;;;;;0.29;70.47;99181.47;7381689;19;20323;-78
2022/12/19 03:34:05;;;;;;;;;;;;;;;0.27;70.58;99186.75;7379876;19;19930;-78
2022/12/19 03:36:35;;;;;;;;;;;;;;;0.26;70.30;99199.81;7380182;19;19922;-79
2022/12/19 03:39:02;;;;;;;;;;;;;;;0.27;70.62;99196.34;7382004;19;19943;-78
2022/12/19 03:44:14;;;;;;;;;;;;;;;0.21;70.48;99197.44;7379058;19;19944;-77
2022/12/19 03:46:42;;;;;;;;;;;;;;;0.30;70.69;99194.41;7380795;19;19918;-78
2022/12/19 03:49:08;;;;;;;;;;;;;;;0.30;70.56;99186.59;7381129;19;19918;-77
2022/12/19 03:51:46;;;;;;;;;;;;;;;0.27;70.88;99178.13;7380522;19;19930;-78
2022/12/19 03:54:17;;;;;;;;;;;;;;;0.24;71.05;99179.09;7383829;19;19949;-78
2022/12/19 03:56:51;;;;;;;;;;;;;;;0.37;70.54;99185.41;7382421;19;19923;-79
2022/12/19 03:59:30;;;;;;;;;;;;;;;0.40;70.47;99179.22;7381687;19;20358;-78
2022/12/19 04:01:57;;;;;;;;;;;;;;;0.44;70.46;99188.56;7385190;19;19950;-78
2022/12/19 04:04:24;;;;;;;;;;;;;;;0.44;70.51;99184.19;7388008;19;20283;-77
2022/12/19 04:06:51;;;;;;;;;;;;;;;0.40;70.38;99174.84;7381763;19;19910;-77
2022/12/19 04:09:17;;;;;;;;;;;;;;;0.50;70.74;99180.47;7376630;19;20348;-77
2022/12/19 04:11:49;;;;;;;;;;;;;;;0.47;70.50;99187.56;7385750;19;19974;-78
2022/12/19 04:14:17;;;;;;;;;;;;;;;0.58;70.61;99196.59;7384719;19;19933;-76
2022/12/19 04:16:45;;;;;;;;;;;;;;;0.45;70.69;99192.88;7384146;19;19930;-75
2022/12/19 04:19:28;;;;;;;;;;;;;;;0.53;71.02;99189.91;7384980;19;20269;-74
2022/12/19 04:21:56;;;;;;;;;;;;;;;0.43;71.03;99192.09;7382618;19;19923;-75
2022/12/19 04:24:24;;;;;;;;;;;;;;;0.36;71.47;99190.69;7384147;19;20211;-76
2022/12/19 04:26:51;;;;;;;;;;;;;;;0.30;71.33;99188.38;7382231;19;20332;-76
2022/12/19 04:29:18;;;;;;;;;;;;;;;0.40;71.54;99190.47;7380792;19;19934;-78
2022/12/19 04:31:44;;;;;;;;;;;;;;;0.26;72.07;99190.25;7384477;19;20343;-77
2022/12/19 04:34:11;;;;;;;;;;;;;;;0.29;72.26;99200.56;7382362;19;19919;-77
2022/12/19 04:36:37;;;;;;;;;;;;;;;0.42;72.15;99206.88;7379605;19;19938;-77
2022/12/19 04:39:04;;;;;;;;;;;;;;;0.63;72.34;99205.03;7385182;19;19918;-77
2022/12/19 04:41:31;;;;;;;;;;;;;;;0.48;72.72;99204.91;7379004;19;19911;-77
2022/12/19 04:43:57;;;;;;;;;;;;;;;0.44;72.53;99210.22;7383523;19;19922;-77
2022/12/19 04:46:24;;;;;;;;;;;;;;;0.47;72.59;99197.97;7380804;19;19948;-77
2022/12/19 04:48:50;;;;;;;;;;;;;;;0.43;72.49;99198.13;7383113;19;19922;-77
2022/12/19 04:51:17;;;;;;;;;;;;;;;0.58;72.08;99200.91;7381552;19;19926;-78
2022/12/19 04:53:43;;;;;;;;;;;;;;;0.42;72.76;99196.47;7384295;19;19923;-77
2022/12/19 04:56:10;;;;;;;;;;;;;;;0.49;72.59;99198.75;7378262;19;19947;-77
2022/12/19 04:58:37;;;;;;;;;;;;;;;0.58;72.31;99201.78;7381967;19;19951;-77
2022/12/19 05:01:04;;;;;;;;;;;;;;;0.60;72.18;99197.31;7384853;19;19923;-78
2022/12/19 05:03:31;;;;;;;;;;;;;;;0.72;72.31;99188.09;7386071;19;19923;-77
2022/12/19 05:06:10;;;;;;;;;;;;;;;0.73;72.36;99189.78;7385225;19;19939;-77
2022/12/19 05:08:38;;;;;;;;;;;;;;;0.69;72.47;99187.41;7397871;19;19914;-77
2022/12/19 05:11:05;;;;;;;;;;;;;;;0.64;72.72;99180.66;7397349;19;19931;-77
2022/12/19 05:13:31;;;;;;;;;;;;;;;0.53;73.16;99182.94;7393156;19;19922;-78
2022/12/19 05:15:59;;;;;;;;;;;;;;;0.61;72.88;99177.38;7394274;19;20334;-77
2022/12/19 05:18:25;;;;;;;;;;;;;;;0.59;72.72;99171.38;7397608;19;20348;-77
2022/12/19 05:20:52;;;;;;;;;;;;;;;0.73;72.81;99165.50;7396842;19;20262;-79
2022/12/19 05:23:18;;;;;;;;;;;;;;;0.77;72.59;99157.47;7396235;19;20360;-78
2022/12/19 05:25:45;;;;;;;;;;;;;;;0.76;72.82;99149.72;7394175;19;19922;-79
2022/12/19 05:28:12;;;;;;;;;;;;;;;0.93;72.61;99141.09;7393867;19;19922;-79
2022/12/19 05:30:39;;;;;;;;;;;;;;;0.88;72.97;99146.50;7390986;19;19943;-78
2022/12/19 05:33:05;;;;;;;;;;;;;;;0.94;72.82;99142.75;7395869;19;19922;-78
2022/12/19 05:35:32;;;;;;;;;;;;;;;1.11;72.37;99140.16;7393970;19;20401;-79
2022/12/19 05:37:59;;;;;;;;;;;;;;;1.08;72.44;99150.75;7391466;19;19940;-78
2022/12/19 05:40:25;;;;;;;;;;;;;;;0.96;72.88;99156.56;7397183;19;19923;-78
2022/12/19 05:42:52;;;;;;;;;;;;;;;1.18;72.72;99156.31;7391870;19;19942;-79
2022/12/19 05:45:18;;;;;;;;;;;;;;;1.18;72.45;99158.94;7389067;19;20364;-79
2022/12/19 05:47:45;;;;;;;;;;;;;;;1.14;72.32;99163.47;7395630;19;19918;-78
2022/12/19 05:50:12;;;;;;;;;;;;;;;0.98;72.97;99159.94;7395003;19;19943;-78
2022/12/19 05:52:39;;;;;;;;;;;;;;;1.02;73.01;99153.63;7392738;19;20014;-77
2022/12/19 05:55:06;;;;;;;;;;;;;;;1.04;72.87;99150.03;7395854;19;19942;-77
2022/12/19 05:57:36;;;;;;;;;;;;;;;1.14;72.70;99144.38;7396797;19;20294;-77
2022/12/19 06:00:03;;;;;;;;;;;;;;;1.13;73.00;99151.34;7395950;19;19915;-77
2022/12/19 06:02:37;;;;;;;;;;;;;;;1.15;72.93;99144.28;7394303;19;19923;-79
2022/12/19 06:05:04;;;;;;;;;;;;;;;1.12;72.77;99151.44;7395112;19;19914;-78
2022/12/19 06:07:31;;;;;;;;;;;;;;;1.11;72.77;99137.56;7400624;19;20038;-78
2022/12/19 06:09:57;;;;;;;;;;;;;;;1.31;72.48;99134.75;7395558;19;19919;-77
2022/12/19 06:12:25;;;;;;;;;;;;;;;1.46;72.20;99138.34;7398229;19;19914;-79
2022/12/19 06:14:51;;;;;;;;;;;;;;;1.36;72.16;99138.91;7395952;19;19923;-79
2022/12/19 06:17:18;;;;;;;;;;;;;;;1.35;72.51;99135.47;7390634;19;19922;-79
2022/12/19 06:19:45;;;;;;;;;;;;;;;1.47;72.30;99134.81;7387443;19;19919;-78
2022/12/19 06:22:11;;;;;;;;;;;;;;;1.28;72.11;99141.91;7391289;19;20513;-79
2022/12/19 06:24:38;;;;;;;;;;;;;;;1.42;72.40;99126.41;7383244;19;19951;-79
2022/12/19 06:27:04;;;;;;;;;;;;;;;1.39;72.38;99125.72;7388693;19;19919;-78
2022/12/19 06:29:31;;;;;;;;;;;;;;;1.50;72.05;99137.28;7387844;19;19941;-79
2022/12/19 06:31:57;;;;;;;;;;;;;;;1.47;71.97;99126.97;7381543;19;19918;-79
2022/12/19 06:34:24;;;;;;;;;;;;;;;1.48;71.94;99140.88;7378955;19;19933;-79
2022/12/19 06:37:11;;;;;;;;;;;;;;;1.44;71.92;99137.56;7393548;19;19929;-79
2022/12/19 06:39:37;;;;;;;;;;;;;;;1.51;71.66;99143.34;7389821;19;19934;-79
2022/12/19 06:42:22;;;;;;;;;;;;;;;1.63;71.38;99132.22;7388152;19;20293;-78
2022/12/19 06:44:53;;;;;;;;;;;;;;;1.63;71.38;99141.84;7389126;19;19930;-78
2022/12/19 06:47:22;;;;;;;;;;;;;;;1.44;72.11;99134.13;7388984;19;19991;-78
2022/12/19 06:49:49;;;;;;;;;;;;;;;1.56;72.01;99128.28;7385274;19;20256;-78
2022/12/19 06:52:15;;;;;;;;;;;;;;;1.53;71.97;99128.47;7390501;19;19922;-78
2022/12/19 06:54:42;;;;;;;;;;;;;;;1.60;72.20;99129.78;7391961;19;19947;-78
2022/12/19 06:57:08;;;;;;;;;;;;;;;1.51;72.61;99117.25;7389025;19;19922;-77
2022/12/19 06:59:35;;;;;;;;;;;;;;;1.72;72.15;99123.94;7389787;19;19930;-78
2022/12/19 07:02:05;;;;;;;;;;;;;;;1.68;72.04;99119.78;7390103;19;20451;-77
2022/12/19 07:04:33;;;;;;;;;;;;;;;1.74;72.03;99122.09;7385263;19;19923;-77
2022/12/19 07:06:59;;;;;;;;;;;;;;;1.81;72.01;99127.81;7387385;19;20261;-77
2022/12/19 07:09:26;;;;;;;;;;;;;;;1.71;72.27;99134.44;7389595;19;19919;-77
2022/12/19 07:11:53;;;;;;;;;;;;;;;1.65;72.42;99127.78;7386154;19;20332;-77
2022/12/19 07:14:19;;;;;;;;;;;;;;;1.57;72.96;99131.72;7388494;19;20300;-77
2022/12/19 07:16:46;;;;;;;;;;;;;;;1.61;72.72;99126.28;7389483;19;19926;-77
2022/12/19 07:19:13;;;;;;;;;;;;;;;1.60;72.68;99126.34;7387130;19;19914;-77
2022/12/19 07:21:39;;;;;;;;;;;;;;;1.58;73.15;99131.66;7386506;19;19923;-77
2022/12/19 07:24:06;;;;;;;;;;;;;;;1.54;73.53;99122.31;7387777;19;19925;-77
2022/12/19 07:26:34;;;;;;;;;;;;;;;1.62;73.97;99127.97;7389717;19;19957;-77
2022/12/19 07:29:01;;;;;;;;;;;;;;;1.58;73.85;99130.78;7385904;19;19915;-77
2022/12/19 07:31:28;;;;;;;;;;;;;;;1.54;73.68;99124.91;7388830;19;20360;-77
2022/12/19 07:33:54;;;;;;;;;;;;;;;1.65;73.36;99121.72;7390738;19;19919;-77
2022/12/19 07:36:21;;;;;;;;;;;;;;;1.67;73.52;99130.31;7386075;19;20336;-77
2022/12/19 07:38:48;;;;;;;;;;;;;;;1.70;73.82;99130.16;7386517;19;19951;-77
2022/12/19 07:41:15;;;;;;;;;;;;;;;1.82;73.45;99126.03;7389027;19;19954;-74
2022/12/19 07:43:42;;;;;;;;;;;;;;;1.67;73.24;99139.00;7386840;19;19939;-74
2022/12/19 07:46:08;;;;;;;;;;;;;;;1.78;73.28;99142.81;7388223;19;19926;-75
2022/12/19 07:48:35;;;;;;;;;;;;;;;1.85;73.40;99137.19;7391304;19;19921;-75
2022/12/19 07:51:04;;;;;;;;;;;;;;;1.85;72.94;99137.19;7386409;19;19919;-75
2022/12/19 07:53:30;;;;;;;;;;;;;;;2.09;72.19;99147.22;7388023;19;19925;-75
2022/12/19 07:55:57;;;;;;;;;;;;;;;2.04;72.58;99144.00;7384284;19;19919;-76
2022/12/19 07:58:23;;;;;;;;;;;;;;;1.97;72.80;99135.66;7387817;19;20277;-76
2022/12/19 08:00:56;;;;;;;;;;;;;;;1.96;72.70;99144.44;7389245;19;19923;-75
2022/12/19 08:03:23;;;;;;;;;;;;;;;2.05;72.57;99143.91;7390142;19;19915;-75
2022/12/19 08:05:49;;;;;;;;;;;;;;;2.23;72.30;99141.22;7386125;19;22131;-75
2022/12/19 08:08:16;;;;;;;;;;;;;;;2.22;72.33;99143.00;7388901;19;19947;-75
2022/12/19 08:10:43;;;;;;;;;;;;;;;2.29;72.32;99133.06;7383809;19;20047;-75
2022/12/19 08:13:09;;;;;;;;;;;;;;;2.37;72.10;99136.06;7384554;19;19919;-75
2022/12/19 08:15:36;;;;;;;;;;;;;;;2.48;72.17;99135.50;7384899;19;19923;-75
2022/12/19 08:18:03;;;;;;;;;;;;;;;2.47;72.32;99139.03;7389874;19;19915;-75
2022/12/19 08:20:29;;;;;;;;;;;;;;;2.46;72.02;99148.63;7386823;19;19943;-75
2022/12/19 08:22:56;;;;;;;;;;;;;;;2.40;72.41;99151.59;7387985;19;19919;-75
2022/12/19 08:25:22;;;;;;;;;;;;;;;2.48;72.27;99148.56;7387252;19;20381;-75
2022/12/19 08:27:48;;;;;;;;;;;;;;;2.49;71.94;99152.84;7386182;19;19960;-75
2022/12/19 08:30:15;;;;;;;;;;;;;;;2.51;72.01;99153.63;7382319;19;19918;-75
2022/12/19 08:32:43;;;;;;;;;;;;;;;2.61;71.77;99146.94;7386330;19;19931;-75
2022/12/19 08:35:10;;;;;;;;;;;;;;;2.50;71.88;99155.38;7389875;19;19929;-75
2022/12/19 08:37:37;;;;;;;;;;;;;;;2.49;72.14;99160.69;7384671;19;19938;-75
2022/12/19 08:40:04;;;;;;;;;;;;;;;2.60;71.74;99153.09;7384622;19;19943;-75
2022/12/19 08:42:32;;;;;;;;;;;;;;;2.63;72.05;99150.28;7387716;19;19931;-76
2022/12/19 08:44:58;;;;;;;;;;;;;;;2.70;71.90;99156.03;7385962;19;19931;-75
2022/12/19 08:47:25;;;;;;;;;;;;;;;2.83;71.59;99154.41;7385163;19;19921;-75
2022/12/19 08:49:52;;;;;;;;;;;;;;;2.89;71.64;99154.03;7386578;19;19918;-75
2022/12/19 08:52:18;;;;;;;;;;;;;;;3.11;70.90;99147.56;7386029;19;20344;-75
2022/12/19 08:54:45;;;;;;;;;;;;;;;3.04;70.94;99150.53;7388259;19;19947;-75
2022/12/19 08:57:11;;;;;;;;;;;;;;;3.33;70.38;99141.94;7389908;19;19923;-75
2022/12/19 08:59:38;;;;;;;;;;;;;;;3.22;70.45;99135.56;7386359;19;19914;-75
2022/12/19 09:02:06;;;;;;;;;;;;;;;3.30;70.38;99137.72;7385795;19;19926;-74
2022/12/19 09:04:32;;;;;;;;;;;;;;;3.09;70.78;99137.22;7384618;19;19922;-75
2022/12/19 09:07:19;;;;;;;;;;;;;;;3.23;70.41;99136.38;7388181;19;19915;-74
2022/12/19 09:09:45;;;;;;;;;;;;;;;3.22;70.38;99140.78;7384606;19;20269;-74
2022/12/19 09:12:12;;;;;;;;;;;;;;;3.21;71.04;99127.78;7388189;19;19943;-74
2022/12/19 09:14:39;;;;;;;;;;;;;;;3.14;71.16;99127.31;7385613;19;19911;-74
2022/12/19 09:17:05;;;;;;;;;;;;;;;3.11;71.45;99126.63;7386691;19;19918;-74
2022/12/19 09:19:32;;;;;;;;;;;;;;;3.26;70.93;99128.34;7385221;19;19923;-74
2022/12/19 09:21:58;;;;;;;;;;;;;;;3.35;70.78;99130.44;7382847;19;19923;-73
2022/12/19 09:24:25;;;;;;;;;;;;;;;3.39;70.61;99129.31;7386231;19;19961;-73
2022/12/19 09:26:51;;;;;;;;;;;;;;;3.39;70.69;99125.84;7386692;19;20356;-73
2022/12/19 09:29:18;;;;;;;;;;;;;;;3.41;70.55;99124.00;7385686;19;20236;-72
2022/12/19 09:31:48;;;;;;;;;;;;;;;3.52;70.24;99130.25;7383649;19;19922;-72
2022/12/19 09:34:25;;;;;;;;;;;;;;;3.58;70.18;99123.84;7388166;19;20038;-73
2022/12/19 09:37:07;;;;;;;;;;;;;;;3.63;69.97;99129.59;7383541;19;19939;-73
2022/12/19 09:39:34;;;;;;;;;;;;;;;3.67;70.05;99125.03;7384647;19;20299;-73
2022/12/19 09:42:13;;;;;;;;;;;;;;;3.40;71.09;99120.53;7382330;19;19927;-75
2022/12/19 09:44:45;;;;;;;;;;;;;;;3.35;71.54;99119.97;7386597;19;19918;-72
2022/12/19 09:47:13;;;;;;;;;;;;;;;3.45;71.29;99122.84;7384883;19;20514;-71
2022/12/19 09:49:42;;;;;;;;;;;;;;;3.57;70.90;99116.91;7384524;19;19926;-72
2022/12/19 09:52:20;;;;;;;;;;;;;;;3.66;70.62;99126.81;7386593;19;19911;-72
2022/12/19 09:55:05;;;;;;;;;;;;;;;3.84;70.46;99124.00;7392577;19;19926;-72
2022/12/19 09:57:35;;;;;;;;;;;;;;;3.84;70.17;99121.38;7386396;19;19919;-72
2022/12/19 10:00:04;;;;;;;;;;;;;;;3.93;69.99;99116.41;7391358;19;19958;-72
2022/12/19 10:02:46;;;;;;;;;;;;;;;3.93;69.95;99112.97;7393094;19;19930;-72
2022/12/19 10:05:13;;;;;;;;;;;;;;;4.25;69.62;99115.31;7393641;19;19923;-72
2022/12/19 10:08:00;;;;;;;;;;;;;;;4.38;68.89;99103.97;7394124;19;19921;-74
2022/12/19 10:10:53;;;;;;;;;;;;;;;4.52;68.74;99108.31;7390833;19;20312;-73
2022/12/19 10:13:52;;;;;;;;;;;;;;;4.65;68.43;99103.09;7389104;19;19915;-73
2022/12/19 10:16:39;;;;;;;;;;;;;;;4.65;68.35;99102.28;7387763;19;20352;-73
2022/12/19 10:19:07;;;;;;;;;;;;;;;4.26;68.79;99093.44;7385562;19;19919;-74
2022/12/19 10:21:52;;;;;;;;;;;;;;;4.34;68.77;99081.50;7391662;19;19949;-74
2022/12/19 10:24:57;;;;;;;;;;;;;;;4.38;68.54;99080.38;7391393;19;20350;-75
2022/12/19 10:27:43;;;;;;;;;;;;;;;4.22;69.44;99082.31;7387315;19;19929;-75
2022/12/19 10:30:25;;;;;;;;;;;;;;;4.40;69.26;99078.50;7390593;19;19926;-75
2022/12/19 10:33:09;;;;;;;;;;;;;;;4.44;69.15;99078.31;7392607;19;20362;-75
2022/12/19 10:35:48;;;;;;;;;;;;;;;4.75;68.73;99082.38;7391012;19;19947;-75
2022/12/19 10:38:35;;;;;;;;;;;;;;;4.86;68.16;99082.50;7389578;19;19937;-76
2022/12/19 10:41:10;;;;;;;;;;;;;;;4.88;68.27;99078.00;7391597;19;20275;-76
2022/12/19 10:43:46;;;;;;;;;;;;;;;5.00;67.75;99068.47;7386709;19;20352;-76
2022/12/19 10:46:14;;;;;;;;;;;;;;;5.10;67.83;99052.94;7389635;19;19936;-76
2022/12/19 10:48:42;;;;;;;;;;;;;;;5.32;67.55;99055.78;7390785;19;19934;-75
2022/12/19 10:51:12;;;;;;;;;;;;;;;5.39;67.06;99057.03;7388322;19;19919;-74
2022/12/19 10:53:39;;;;;;;;;;;;;;;5.42;66.50;99053.34;7390861;19;19922;-76
2022/12/19 10:56:17;;;;;;;;;;;;;;;5.21;66.73;99061.78;7390789;19;19915;-76
2022/12/19 10:58:44;;;;;;;;;;;;;;;5.17;67.17;99056.84;7385819;19;19961;-76
2022/12/19 11:01:12;;;;;;;;;;;;;;;5.16;67.33;99053.38;7388325;19;19935;-76
2022/12/19 11:03:40;;;;;;;;;;;;;;;5.11;67.58;99058.09;7389684;19;19944;-77
2022/12/19 11:06:28;;;;;;;;;;;;;;;5.00;67.68;99052.72;7385650;19;19983;-77
2022/12/19 11:08:57;;;;;;;;;;;;;;;5.11;67.54;99031.00;7391121;19;19914;-76
2022/12/19 11:11:23;;;;;;;;;;;;;;;5.09;67.58;99032.91;7387029;19;19990;-76
2022/12/19 11:14:26;;;;;;;;;;;;;;;5.12;67.46;99024.84;7383213;19;20340;-76
2022/12/19 11:17:46;;;;;;;;;;;;;;;5.28;67.11;99023.66;7385179;19;19915;-76
2022/12/19 11:20:32;;;;;;;;;;;;;;;5.25;67.00;99029.13;7388189;19;19945;-76
2022/12/19 11:23:19;;;;;;;;;;;;;;;5.38;66.90;99029.13;7389866;19;19929;-75
2022/12/19 11:26:06;;;;;;;;;;;;;;;5.38;66.66;99025.66;7388880;19;20002;-75
2022/12/19 11:28:52;;;;;;;;;;;;;;;5.28;66.73;99020.22;7389577;19;19919;-74
2022/12/19 11:31:39;;;;;;;;;;;;;;;5.39;66.50;99027.31;7387602;19;19941;-74
2022/12/19 11:34:30;;;;;;;;;;;;;;;5.26;66.74;99015.06;7384261;19;19974;-75
2022/12/19 11:37:15;;;;;;;;;;;;;;;5.42;66.53;99012.19;7380209;19;19943;-74
2022/12/19 11:39:47;;;;;;;;;;;;;;;5.36;66.83;99009.19;7389633;19;20554;-75
2022/12/19 11:42:22;;;;;;;;;;;;;;;5.42;66.59;99006.94;7388166;19;20218;-75
2022/12/19 11:45:08;;;;;;;;;;;;;;;5.33;66.73;99002.34;7383918;19;20341;-75
2022/12/19 11:47:43;;;;;;;;;;;;;;;5.36;67.41;98990.81;7386385;19;19923;-75
2022/12/19 11:50:12;;;;;;;;;;;;;;;5.50;66.88;98988.03;7387767;19;19943;-74
2022/12/19 11:52:56;;;;;;;;;;;;;;;5.65;66.43;98989.59;7384122;19;20391;-74
2022/12/19 11:55:50;;;;;;;;;;;;;;;5.90;65.81;98993.09;7384474;19;20407;-73
2022/12/19 11:58:16;;;;;;;;;;;;;;;6.03;65.64;98983.41;7387848;19;19951;-73
2022/12/19 12:00:45;;;;;;;;;;;;;;;6.19;65.09;98977.00;7386237;19;20348;-73
2022/12/19 12:03:29;;;;;;;;;;;;;;;6.23;64.70;98973.22;7388275;19;19918;-73
2022/12/19 12:05:57;;;;;;;;;;;;;;;6.32;64.47;98972.53;7378966;19;19940;-74
2022/12/19 12:08:23;;;;;;;;;;;;;;;6.47;64.29;98965.28;7384175;19;19923;-74
2022/12/19 12:11:21;;;;;;;;;;;;;;;6.22;64.61;98969.75;7383252;19;19972;-73
2022/12/19 12:14:10;;;;;;;;;;;;;;;6.23;64.24;98983.72;7380655;19;20268;-75
2022/12/19 12:17:15;;;;;;;;;;;;;;;6.23;64.44;98976.66;7380588;19;20013;-75
2022/12/19 12:20:20;;;;;;;;;;;;;;;6.26;64.56;98965.09;7389195;19;19949;-75
2022/12/19 12:23:07;;;;;;;;;;;;;;;6.26;64.72;98967.72;7383495;19;19974;-75
2022/12/19 12:26:02;;;;;;;;;;;;;;;6.31;64.58;98970.84;7380656;19;19919;-74
2022/12/19 12:28:55;;;;;;;;;;;;;;;6.19;64.58;98977.00;7385495;19;19918;-74
2022/12/19 12:31:47;;;;;;;;;;;;;;;6.21;64.67;98962.78;7381962;19;20252;-74
2022/12/19 12:34:46;;;;;;;;;;;;;;;6.30;64.56;98959.50;7382905;19;19938;-75
2022/12/19 12:37:36;;;;;;;;;;;;;;;6.12;65.01;98966.94;7385244;19;19925;-75
2022/12/19 12:40:23;;;;;;;;;;;;;;;6.28;64.68;98950.88;7387265;19;19918;-74
2022/12/19 12:42:52;;;;;;;;;;;;;;;6.31;64.55;98950.66;7387212;19;19943;-74
2022/12/19 12:45:21;;;;;;;;;;;;;;;6.38;64.60;98949.25;7384622;19;19923;-74
2022/12/19 12:47:48;;;;;;;;;;;;;;;6.37;64.75;98944.97;7382691;19;19971;-75
2022/12/19 12:50:16;;;;;;;;;;;;;;;6.44;64.28;98933.97;7382969;19;19918;-75
2022/12/19 12:52:44;;;;;;;;;;;;;;;6.46;64.57;98934.72;7383314;19;19915;-75
2022/12/19 12:55:13;;;;;;;;;;;;;;;6.37;64.56;98934.44;7384621;19;19943;-74
2022/12/19 12:57:43;;;;;;;;;;;;;;;6.24;64.75;98940.72;7385290;19;19930;-74
2022/12/19 13:00:15;;;;;;;;;;;;;;;6.27;64.85;98940.50;7386060;19;19919;-74
2022/12/19 13:02:57;;;;;;;;;;;;;;;6.23;64.80;98934.63;7383207;19;19929;-73
2022/12/19 13:05:48;;;;;;;;;;;;;;;6.13;65.29;98929.25;7382351;19;19914;-73
2022/12/19 13:08:23;;;;;;;;;;;;;;;6.06;65.36;98938.53;7382568;19;20350;-74
2022/12/19 13:10:56;;;;;;;;;;;;;;;6.00;65.60;98931.06;7382874;19;19931;-72
2022/12/19 13:13:42;;;;;;;;;;;;;;;6.12;65.45;98926.72;7383094;19;19927;-73
2022/12/19 13:16:27;;;;;;;;;;;;;;;6.31;65.23;98927.00;7384735;19;19921;-73
2022/12/19 13:19:14;;;;;;;;;;;;;;;6.34;65.44;98928.56;7385640;19;20403;-73
2022/12/19 13:22:03;;;;;;;;;;;;;;;6.25;65.35;98931.91;7381949;19;19927;-74